Time;durP1;ratioP1;P1;durP2;ratioP2;P2;SDS_P1;SDS_P2;PMS_P1;PMS_P2;Temp;Humidity;BMP_temperature;BMP_pressure;BME280_temperature;BME280_humidity;BME280_pressure;Samples;Min_cycle;Max_cycle;Signal;HPM_P1;HPM_P2
2022/09/07 00:02:09;;;;;;;6.28;3.55;;;22.60;97.20;;;;;;5017252;28;20022;-92
2022/09/07 00:04:34;;;;;;;6.70;3.20;;;22.60;97.10;;;;;;5017639;28;20049;-91
2022/09/07 00:07:00;;;;;;;7.03;3.40;;;22.50;97.30;;;;;;5018679;28;20034;-90
2022/09/07 00:09:26;;;;;;;6.93;3.25;;;22.50;97.40;;;;;;5017331;28;20033;-91
2022/09/07 00:11:51;;;;;;;6.65;2.95;;;22.40;97.60;;;;;;4985039;28;20033;-90
2022/09/07 00:14:17;;;;;;;4.72;2.85;;;22.30;97.60;;;;;;5001065;28;20037;-91
2022/09/07 00:16:42;;;;;;;6.10;3.47;;;22.30;97.80;;;;;;5002250;28;20753;-91
2022/09/07 00:19:08;;;;;;;4.88;3.08;;;22.30;97.80;;;;;;4988254;28;20116;-91
2022/09/07 00:21:35;;;;;;;4.60;3.20;;;22.20;98.00;;;;;;5014951;28;20028;-91
2022/09/07 00:24:01;;;;;;;5.78;3.15;;;22.20;98.10;;;;;;5017533;28;20457;-91
2022/09/07 00:26:28;;;;;;;5.95;3.15;;;22.10;98.20;;;;;;5017187;28;20032;-91
2022/09/07 00:28:59;;;;;;;5.05;3.20;;;22.10;98.20;;;;;;5017101;28;20038;-90
2022/09/07 00:31:26;;;;;;;10.55;3.25;;;22.00;98.20;;;;;;5016925;28;20029;-89
2022/09/07 00:33:53;;;;;;;5.78;3.33;;;22.00;98.20;;;;;;5034499;28;20083;-91
2022/09/07 00:36:20;;;;;;;8.55;3.50;;;22.00;98.40;;;;;;5016848;28;20039;-91
2022/09/07 00:38:45;;;;;;;8.10;3.30;;;22.00;98.50;;;;;;5000464;28;20025;-90
2022/09/07 00:41:12;;;;;;;5.07;2.95;;;21.90;98.50;;;;;;5016373;28;20133;-90
2022/09/07 00:43:51;;;;;;;5.10;2.70;;;21.90;98.60;;;;;;5016601;28;20113;-90
2022/09/07 00:46:26;;;;;;;5.00;2.50;;;21.90;98.80;;;;;;5035347;28;20049;-89
2022/09/07 00:49:15;;;;;;;4.65;2.63;;;21.80;98.90;;;;;;5034327;28;20125;-92
2022/09/07 00:51:48;;;;;;;6.43;2.75;;;21.80;98.80;;;;;;5028847;28;20033;-91
2022/09/07 00:54:28;;;;;;;6.20;3.00;;;21.80;99.00;;;;;;5016661;28;20127;-89
2022/09/07 00:56:54;;;;;;;4.60;2.30;;;21.80;99.00;;;;;;5033201;28;20021;-90
2022/09/07 00:59:24;;;;;;;7.10;3.10;;;21.80;99.10;;;;;;5014506;28;20434;-87
2022/09/07 01:01:50;;;;;;;4.45;2.45;;;21.70;99.40;;;;;;5033015;28;20028;-91
2022/09/07 01:04:17;;;;;;;4.85;2.53;;;21.70;99.20;;;;;;5002344;28;20132;-93
2022/09/07 01:06:43;;;;;;;3.05;2.13;;;21.70;99.30;;;;;;5004186;28;20098;-91
2022/09/07 01:09:12;;;;;;;4.57;2.10;;;21.70;99.40;;;;;;5037355;28;20029;-90
2022/09/07 01:11:38;;;;;;;4.10;2.25;;;21.70;99.50;;;;;;5020200;28;20013;-92
2022/09/07 01:14:08;;;;;;;4.43;2.22;;;21.60;99.50;;;;;;5004232;28;20036;-89
2022/09/07 01:16:50;;;;;;;3.85;2.00;;;21.60;99.50;;;;;;5037351;28;20040;-90
2022/09/07 01:19:37;;;;;;;3.45;1.80;;;21.60;99.50;;;;;;5020439;28;20124;-90
2022/09/07 01:22:27;;;;;;;2.35;1.65;;;21.50;99.60;;;;;;5023831;28;20022;-90
2022/09/07 01:25:13;;;;;;;3.25;1.60;;;21.50;99.80;;;;;;5019631;28;20029;-89
2022/09/07 01:28:17;;;;;;;3.00;1.60;;;21.40;99.60;;;;;;5036480;28;20021;-89
2022/09/07 01:30:57;;;;;;;2.53;1.48;;;21.40;99.60;;;;;;5007751;28;20036;-89
2022/09/07 01:33:55;;;;;;;4.13;1.85;;;21.40;99.80;;;;;;5031747;28;20465;-89
2022/09/07 01:36:30;;;;;;;3.90;1.60;;;21.30;99.70;;;;;;5038028;28;20028;-90
2022/09/07 01:39:00;;;;;;;3.92;1.70;;;21.30;99.70;;;;;;5051305;28;20089;-89
2022/09/07 01:41:41;;;;;;;3.00;1.50;;;21.20;99.80;;;;;;5030141;28;20435;-89
2022/09/07 01:44:19;;;;;;;3.08;1.70;;;21.20;99.80;;;;;;5039474;28;20025;-89
2022/09/07 01:46:52;;;;;;;3.90;2.00;;;21.20;99.90;;;;;;5035913;28;20025;-88
2022/09/07 01:49:33;;;;;;;3.08;1.38;;;21.20;99.90;;;;;;5022676;28;20401;-91
2022/09/07 01:52:12;;;;;;;3.40;1.88;;;21.10;99.90;;;;;;5024503;28;20020;-90
2022/09/07 01:54:44;;;;;;;3.03;1.88;;;21.10;99.90;;;;;;5035949;28;20026;-90
2022/09/07 01:57:16;;;;;;;2.95;1.73;;;21.10;99.90;;;;;;5035858;28;20104;-89
2022/09/07 01:59:48;;;;;;;2.47;1.42;;;21.10;99.90;;;;;;5018762;28;20026;-89
2022/09/07 02:02:19;;;;;;;4.97;1.90;;;21.10;99.90;;;;;;5019483;28;20105;-89
2022/09/07 02:04:51;;;;;;;5.45;1.63;;;21.00;99.90;;;;;;5036317;28;20139;-89
2022/09/07 02:07:29;;;;;;;3.75;1.70;;;21.10;99.90;;;;;;5037382;28;20053;-89
2022/09/07 02:10:15;;;;;;;2.65;1.50;;;21.00;99.90;;;;;;5039101;28;20025;-89
2022/09/07 02:12:50;;;;;;;2.97;1.67;;;21.00;99.90;;;;;;5038882;28;20021;-90
2022/09/07 02:15:22;;;;;;;2.63;1.60;;;21.00;99.90;;;;;;5027898;28;20116;-87
2022/09/07 02:17:53;;;;;;;2.17;1.48;;;20.90;99.90;;;;;;5055013;28;20033;-89
2022/09/07 02:20:23;;;;;;;2.55;1.50;;;20.90;99.90;;;;;;5045101;28;20026;-91
2022/09/07 02:22:54;;;;;;;2.63;1.30;;;20.90;99.90;;;;;;5034943;28;20028;-89
2022/09/07 02:25:24;;;;;;;4.43;1.52;;;20.90;99.90;;;;;;5035058;28;20034;-88
2022/09/07 02:28:00;;;;;;;3.35;1.40;;;20.90;99.90;;;;;;5035913;28;20017;-90
2022/09/07 02:30:26;;;;;;;2.78;1.30;;;20.90;99.90;;;;;;5036887;28;20549;-90
2022/09/07 02:32:55;;;;;;;3.53;1.73;;;20.80;99.90;;;;;;5024714;28;20050;-89
2022/09/07 02:35:21;;;;;;;3.70;1.85;;;20.80;99.90;;;;;;5018611;28;20025;-90
2022/09/07 02:37:49;;;;;;;2.75;1.40;;;20.80;99.90;;;;;;5017742;28;20025;-89
2022/09/07 02:40:14;;;;;;;3.90;1.70;;;20.80;99.90;;;;;;5018750;28;20036;-90
2022/09/07 02:42:42;;;;;;;2.50;1.30;;;20.80;99.90;;;;;;5018199;28;20030;-88
2022/09/07 02:45:09;;;;;;;2.22;1.40;;;20.80;99.90;;;;;;5033144;28;20029;-90
2022/09/07 02:47:47;;;;;;;2.88;1.33;;;20.80;99.90;;;;;;4991495;28;20030;-90
2022/09/07 02:50:18;;;;;;;2.85;1.48;;;20.80;99.90;;;;;;5036063;28;20034;-89
2022/09/07 02:52:47;;;;;;;4.47;1.58;;;20.70;99.90;;;;;;5035686;28;20032;-89
2022/09/07 02:55:39;;;;;;;4.97;1.90;;;20.70;99.90;;;;;;5034654;28;20461;-90
2022/09/07 02:58:42;;;;;;;3.20;1.60;;;20.70;99.90;;;;;;5035470;28;20022;-89
2022/09/07 03:01:14;;;;;;;3.50;1.40;;;20.80;99.90;;;;;;5025097;28;20029;-90
2022/09/07 03:04:09;;;;;;;5.53;1.45;;;20.70;99.90;;;;;;5034228;28;20053;-89
2022/09/07 03:06:47;;;;;;;5.32;1.80;;;20.70;99.90;;;;;;5034297;28;20029;-89
2022/09/07 03:09:18;;;;;;;3.40;1.52;;;20.70;99.90;;;;;;5034411;28;20068;-89
2022/09/07 03:11:44;;;;;;;5.85;1.70;;;20.70;99.90;;;;;;5034793;28;20021;-88
2022/09/07 03:14:22;;;;;;;2.85;1.63;;;20.70;99.90;;;;;;5033909;28;20148;-89
2022/09/07 03:16:50;;;;;;;2.90;1.50;;;20.70;99.90;;;;;;5034026;28;20056;-89
2022/09/07 03:19:16;;;;;;;2.80;1.60;;;20.60;99.90;;;;;;5034041;28;20116;-89
2022/09/07 03:21:41;;;;;;;2.55;1.58;;;20.60;99.90;;;;;;5019516;28;20059;-89
2022/09/07 03:24:07;;;;;;;2.70;1.80;;;20.60;99.90;;;;;;5017262;28;20079;-90
2022/09/07 03:26:38;;;;;;;3.20;1.83;;;20.60;99.90;;;;;;5034635;28;20079;-89
2022/09/07 03:29:03;;;;;;;2.38;1.60;;;20.60;99.90;;;;;;5033952;28;20037;-89
2022/09/07 03:31:32;;;;;;;4.82;1.75;;;20.60;99.90;;;;;;5017683;28;20035;-90
2022/09/07 03:33:57;;;;;;;5.53;2.10;;;20.60;99.90;;;;;;5034098;28;20025;-90
2022/09/07 03:36:23;;;;;;;4.28;2.00;;;20.60;99.90;;;;;;5017833;28;20106;-90
2022/09/07 03:38:49;;;;;;;4.03;1.77;;;20.50;99.90;;;;;;5025166;28;20029;-88
2022/09/07 03:41:14;;;;;;;5.45;2.13;;;20.50;99.90;;;;;;5014434;28;20040;-89
2022/09/07 03:43:40;;;;;;;3.35;1.83;;;20.60;99.90;;;;;;5030629;28;20050;-90
2022/09/07 03:46:09;;;;;;;4.03;1.90;;;20.50;99.90;;;;;;5033804;28;20075;-91
2022/09/07 03:48:37;;;;;;;4.18;2.10;;;20.50;99.90;;;;;;5033800;28;20087;-89
2022/09/07 03:51:06;;;;;;;3.80;2.25;;;20.50;99.90;;;;;;5034712;28;20053;-90
2022/09/07 03:53:33;;;;;;;3.35;2.10;;;20.50;99.90;;;;;;5017242;28;20107;-89
2022/09/07 03:56:04;;;;;;;4.07;2.80;;;20.50;99.90;;;;;;5017321;28;20037;-90
2022/09/07 03:58:31;;;;;;;5.22;2.83;;;20.50;99.90;;;;;;5017829;28;20037;-89
2022/09/07 04:00:58;;;;;;;4.93;2.38;;;20.50;99.90;;;;;;5000834;28;20052;-91
2022/09/07 04:03:24;;;;;;;5.55;2.35;;;20.50;99.90;;;;;;5034221;28;20542;-89
2022/09/07 04:05:50;;;;;;;6.13;3.17;;;20.40;99.90;;;;;;5033791;28;20026;-89
2022/09/07 04:08:16;;;;;;;4.07;2.40;;;20.30;99.90;;;;;;5021352;28;20038;-90
2022/09/07 04:10:41;;;;;;;5.00;2.40;;;20.30;99.90;;;;;;5017366;28;20049;-90
2022/09/07 04:13:07;;;;;;;4.43;2.70;;;20.20;99.90;;;;;;5033537;28;20029;-90
2022/09/07 04:15:34;;;;;;;5.50;2.45;;;20.20;99.90;;;;;;5016892;28;20068;-89
2022/09/07 04:18:00;;;;;;;3.67;2.30;;;20.10;99.90;;;;;;5033431;28;20536;-89
2022/09/07 04:20:26;;;;;;;5.18;2.90;;;20.10;99.90;;;;;;5017021;28;20057;-89
2022/09/07 04:22:51;;;;;;;4.47;2.78;;;20.10;99.90;;;;;;5017316;28;20029;-88
2022/09/07 04:25:18;;;;;;;5.43;2.70;;;20.10;99.90;;;;;;5000976;28;20037;-89
2022/09/07 04:27:44;;;;;;;4.55;2.70;;;20.10;99.90;;;;;;5016643;28;20036;-90
2022/09/07 04:30:10;;;;;;;4.53;2.60;;;20.10;99.90;;;;;;5033699;28;20108;-90
2022/09/07 04:32:36;;;;;;;5.20;3.10;;;20.00;99.90;;;;;;5033815;28;20034;-89
2022/09/07 04:35:02;;;;;;;6.65;2.80;;;20.00;99.90;;;;;;5025688;28;20040;-90
2022/09/07 04:37:29;;;;;;;4.30;2.75;;;20.00;99.90;;;;;;5035476;28;20029;-90
2022/09/07 04:39:54;;;;;;;4.53;3.00;;;20.00;99.90;;;;;;5021217;28;20033;-89
2022/09/07 04:42:20;;;;;;;5.97;3.17;;;20.00;99.90;;;;;;5021774;28;20026;-89
2022/09/07 04:44:48;;;;;;;7.68;3.10;;;20.00;99.90;;;;;;5038600;28;20444;-91
2022/09/07 04:47:14;;;;;;;6.05;3.15;;;19.90;99.90;;;;;;5038117;28;20106;-90
2022/09/07 04:49:40;;;;;;;5.50;3.40;;;19.80;99.90;;;;;;5021595;28;20038;-89
2022/09/07 04:52:06;;;;;;;5.03;3.40;;;19.80;99.90;;;;;;5038460;28;20026;-90
2022/09/07 04:54:31;;;;;;;5.88;4.22;;;19.80;99.90;;;;;;5021572;28;20029;-90
2022/09/07 04:56:57;;;;;;;4.93;3.40;;;19.70;99.90;;;;;;5038438;28;20029;-90
2022/09/07 04:59:23;;;;;;;8.65;4.07;;;19.80;99.90;;;;;;5040401;28;20407;-90
2022/09/07 05:01:48;;;;;;;6.05;3.83;;;19.80;99.90;;;;;;5042392;28;20027;-90
2022/09/07 05:04:14;;;;;;;7.68;4.63;;;19.80;99.90;;;;;;5053953;28;20064;-89
2022/09/07 05:06:39;;;;;;;8.32;5.18;;;19.80;99.90;;;;;;5040262;28;20030;-90
2022/09/07 05:09:05;;;;;;;7.25;4.25;;;19.80;99.90;;;;;;5031838;28;20485;-91
2022/09/07 05:11:31;;;;;;;5.90;4.20;;;19.80;99.90;;;;;;5028335;28;20477;-90
2022/09/07 05:13:58;;;;;;;9.65;4.45;;;19.80;99.90;;;;;;5026594;28;20047;-92
2022/09/07 05:16:25;;;;;;;8.13;4.70;;;19.80;99.90;;;;;;5045568;28;20036;-92
2022/09/07 05:19:02;;;;;;;7.03;3.85;;;19.80;99.90;;;;;;5043256;28;20033;-90
2022/09/07 05:21:32;;;;;;;10.50;4.47;;;19.70;99.90;;;;;;5045436;28;20025;-91
2022/09/07 05:23:59;;;;;;;6.90;4.72;;;19.70;99.90;;;;;;5026047;28;20044;-91
2022/09/07 05:26:27;;;;;;;8.00;4.80;;;19.70;99.90;;;;;;5021172;28;20034;-93
2022/09/07 05:28:53;;;;;;;8.43;4.82;;;19.60;99.90;;;;;;5038291;28;20030;-90
2022/09/07 05:31:21;;;;;;;8.10;4.80;;;19.60;99.90;;;;;;5038244;28;20032;-91
2022/09/07 05:33:52;;;;;;;12.88;5.07;;;19.60;99.90;;;;;;5039040;28;20095;-92
2022/09/07 05:36:19;;;;;;;7.82;5.13;;;19.60;99.90;;;;;;5038562;28;20026;-91
2022/09/07 05:38:45;;;;;;;8.65;5.00;;;19.60;99.90;;;;;;5038718;28;20056;-92
2022/09/07 05:41:16;;;;;;;7.35;4.82;;;19.50;99.90;;;;;;5039446;28;20489;-90
2022/09/07 05:43:42;;;;;;;8.18;5.75;;;19.40;99.90;;;;;;5039687;28;20100;-90
2022/09/07 05:46:08;;;;;;;9.00;5.47;;;19.50;99.90;;;;;;5039669;28;20108;-91
2022/09/07 05:48:34;;;;;;;7.38;6.22;;;19.40;99.90;;;;;;5035669;28;20087;-92
2022/09/07 05:51:00;;;;;;;10.48;7.00;;;19.40;99.90;;;;;;5039894;28;20381;-93
2022/09/07 05:53:26;;;;;;;10.88;7.40;;;19.30;99.90;;;;;;5041121;28;20022;-92
2022/09/07 05:55:52;;;;;;;12.05;9.77;;;19.30;99.90;;;;;;5045280;28;20049;-92
2022/09/07 05:58:18;;;;;;;13.27;10.43;;;19.30;99.90;;;;;;5044500;28;20025;-89
2022/09/07 06:00:44;;;;;;;15.82;12.18;;;19.20;99.90;;;;;;5030172;28;20037;-90
2022/09/07 06:03:10;;;;;;;15.43;13.43;;;19.20;99.90;;;;;;5036063;28;20053;-91
2022/09/07 06:05:36;;;;;;;20.13;15.25;;;19.20;99.90;;;;;;5055263;28;20032;-91
2022/09/07 06:08:03;;;;;;;17.70;15.10;;;19.10;99.90;;;;;;5058581;28;20010;-90
2022/09/07 06:10:33;;;;;;;20.75;16.33;;;19.10;99.90;;;;;;5042787;28;20081;-91
2022/09/07 06:12:59;;;;;;;18.98;16.25;;;19.10;99.90;;;;;;5049907;28;20017;-89
2022/09/07 06:15:25;;;;;;;17.52;15.02;;;19.10;99.90;;;;;;5058767;28;20040;-91
2022/09/07 06:17:50;;;;;;;20.67;15.35;;;19.00;99.90;;;;;;5051176;28;20034;-92
2022/09/07 06:20:16;;;;;;;17.70;15.68;;;19.10;99.90;;;;;;5057093;28;20060;-90
2022/09/07 06:22:42;;;;;;;17.73;15.82;;;19.00;99.90;;;;;;5042185;28;20051;-91
2022/09/07 06:25:08;;;;;;;17.60;14.93;;;19.00;99.90;;;;;;5058582;28;20021;-90
2022/09/07 06:27:34;;;;;;;15.93;14.27;;;19.00;99.90;;;;;;5041640;28;20021;-92
2022/09/07 06:30:00;;;;;;;17.05;15.18;;;19.00;99.90;;;;;;5049986;28;20057;-91
2022/09/07 06:32:27;;;;;;;17.77;15.70;;;19.10;99.90;;;;;;5043136;28;20017;-91
2022/09/07 06:34:53;;;;;;;18.55;15.00;;;19.10;99.90;;;;;;5057659;28;20041;-92
2022/09/07 06:37:18;;;;;;;18.63;15.40;;;19.10;99.90;;;;;;5042008;28;20081;-91
2022/09/07 06:39:44;;;;;;;18.13;15.25;;;19.10;99.90;;;;;;5058483;28;20017;-92
2022/09/07 06:42:10;;;;;;;16.55;14.35;;;19.10;99.90;;;;;;5041682;28;20033;-89
2022/09/07 06:44:35;;;;;;;17.42;15.52;;;19.10;99.90;;;;;;5041793;28;20009;-91
2022/09/07 06:47:01;;;;;;;21.17;17.23;;;19.10;99.90;;;;;;5030532;28;20029;-90
2022/09/07 06:49:27;;;;;;;18.63;16.60;;;19.20;99.90;;;;;;5058288;28;20042;-92
2022/09/07 06:51:53;;;;;;;21.35;17.63;;;19.20;99.90;;;;;;5041613;28;20030;-92
2022/09/07 06:54:18;;;;;;;18.45;16.50;;;19.10;99.90;;;;;;5058303;28;20014;-92
2022/09/07 06:56:44;;;;;;;21.52;17.55;;;19.10;99.90;;;;;;5041434;28;20026;-92
2022/09/07 06:59:10;;;;;;;19.85;17.10;;;19.10;99.90;;;;;;5048923;28;20057;-91
2022/09/07 07:01:35;;;;;;;21.02;17.48;;;19.10;99.90;;;;;;5045032;28;20017;-90
2022/09/07 07:04:01;;;;;;;19.55;17.25;;;19.10;99.90;;;;;;5047740;28;20041;-74
2022/09/07 07:06:35;;;;;;;20.77;17.38;;;19.10;99.90;;;;;;5041276;28;20024;-93
2022/09/07 07:09:02;;;;;;;19.65;17.42;;;19.10;99.90;;;;;;5061604;23;20033;-87
2022/09/07 07:11:29;;;;;;;21.35;18.25;;;19.10;99.90;;;;;;4990431;28;20483;-87
2022/09/07 07:13:55;;;;;;;19.88;17.77;;;19.10;99.90;;;;;;4980148;28;20028;-86
2022/09/07 07:16:21;;;;;;;21.13;18.48;;;19.10;99.90;;;;;;4977335;28;20080;-86
2022/09/07 07:18:51;;;;;;;24.58;17.98;;;19.10;99.90;;;;;;4975454;28;20026;-87
2022/09/07 07:21:17;;;;;;;20.27;17.25;;;19.10;99.90;;;;;;4993454;28;20034;-87
2022/09/07 07:23:43;;;;;;;19.58;16.75;;;19.10;99.90;;;;;;4991966;28;20133;-85
2022/09/07 07:26:12;;;;;;;19.75;17.27;;;19.10;99.90;;;;;;4982641;28;20121;-86
2022/09/07 07:28:42;;;;;;;20.48;17.10;;;19.20;99.90;;;;;;4991573;28;20018;-87
2022/09/07 07:31:09;;;;;;;20.08;17.48;;;19.20;99.90;;;;;;5004721;28;20080;-86
2022/09/07 07:33:35;;;;;;;24.80;17.50;;;19.10;99.90;;;;;;5005770;28;20034;-86
2022/09/07 07:36:09;;;;;;;21.48;16.80;;;19.10;99.90;;;;;;4982704;28;20030;-86
2022/09/07 07:38:55;;;;;;;24.20;17.92;;;19.10;99.90;;;;;;4996506;28;20065;-87
2022/09/07 07:41:23;;;;;;;21.50;18.40;;;19.10;99.90;;;;;;4994140;28;20042;-86
2022/09/07 07:43:55;;;;;;;24.10;17.15;;;19.10;99.90;;;;;;4984228;28;20034;-86
2022/09/07 07:46:23;;;;;;;21.73;19.42;;;19.10;99.90;;;;;;4982796;28;20029;-86
2022/09/07 07:48:49;;;;;;;23.48;19.05;;;19.10;99.90;;;;;;5002636;28;20041;-85
2022/09/07 07:51:15;;;;;;;26.17;20.02;;;19.10;99.90;;;;;;4960523;28;20026;-85
2022/09/07 07:53:40;;;;;;;22.80;19.45;;;19.10;99.90;;;;;;4984322;28;20033;-84
2022/09/07 07:56:08;;;;;;;22.67;19.00;;;19.20;99.90;;;;;;4982535;28;20034;-85
2022/09/07 07:58:35;;;;;;;21.80;18.95;;;19.20;99.90;;;;;;4963591;28;20042;-85
2022/09/07 08:01:06;;;;;;;25.48;20.67;;;19.20;99.90;;;;;;4989429;28;20134;-84
2022/09/07 08:03:35;;;;;;;22.58;19.45;;;19.20;99.90;;;;;;4992978;28;20426;-85
2022/09/07 08:06:08;;;;;;;21.67;19.38;;;19.20;99.90;;;;;;4975617;28;20112;-84
2022/09/07 08:08:35;;;;;;;20.70;18.52;;;19.20;99.90;;;;;;5003939;28;20030;-85
2022/09/07 08:11:13;;;;;;;23.45;19.08;;;19.20;99.90;;;;;;4976442;28;20050;-86
2022/09/07 08:14:13;;;;;;;21.40;18.83;;;19.30;99.90;;;;;;4993332;28;20390;-91
2022/09/07 08:20:16;;;;;;;24.02;20.08;;;19.30;99.90;;;;;;4995229;28;20121;-89
2022/09/07 08:22:42;;;;;;;24.02;20.15;;;19.30;99.90;;;;;;4977902;28;20057;-90
2022/09/07 08:25:09;;;;;;;25.45;20.50;;;19.30;99.90;;;;;;4994000;28;20105;-90
2022/09/07 08:27:35;;;;;;;22.55;20.15;;;19.40;99.90;;;;;;4977425;28;20015;-89
2022/09/07 08:33:23;;;;;;;23.45;20.95;;;19.50;99.90;;;;;;4990261;28;20077;-89
2022/09/07 08:35:56;;;;;;;24.45;21.00;;;19.50;99.90;;;;;;4977109;28;20022;-89
2022/09/07 08:38:22;;;;;;;22.65;19.20;;;19.60;99.90;;;;;;4977163;28;20053;-89
2022/09/07 08:40:48;;;;;;;24.92;22.23;;;19.60;99.90;;;;;;4982298;28;20035;-91
2022/09/07 08:43:39;;;;;;;25.52;22.83;;;19.60;99.90;;;;;;4991650;28;20038;-90
2022/09/07 08:46:56;;;;;;;26.23;21.75;;;19.70;99.90;;;;;;4986225;28;20027;-92
2022/09/07 08:49:36;;;;;;;25.08;22.17;;;19.70;99.90;;;;;;4963157;28;20093;-91
2022/09/07 08:52:08;;;;;;;24.50;21.88;;;19.80;99.90;;;;;;4994606;28;20026;-91
2022/09/07 08:54:35;;;;;;;23.88;21.25;;;19.80;99.90;;;;;;4998693;28;20030;-91
2022/09/07 08:57:02;;;;;;;23.77;21.20;;;19.90;99.90;;;;;;4997065;28;20451;-91
2022/09/07 08:59:35;;;;;;;23.08;20.67;;;19.90;99.90;;;;;;4996954;28;20076;-91
2022/09/07 09:02:01;;;;;;;25.13;21.85;;;19.90;99.90;;;;;;4991424;28;20026;-91
2022/09/07 09:04:29;;;;;;;26.40;21.67;;;20.00;99.90;;;;;;4980027;28;20090;-90
2022/09/07 09:07:24;;;;;;;26.63;20.40;;;20.00;99.90;;;;;;4980883;28;20030;-90
2022/09/07 09:10:26;;;;;;;22.95;20.55;;;20.10;99.90;;;;;;4984732;28;20093;-90
2022/09/07 09:13:01;;;;;;;24.58;21.73;;;20.10;99.90;;;;;;4999082;28;20014;-91
2022/09/07 09:15:52;;;;;;;25.75;21.55;;;20.10;99.90;;;;;;4997654;28;20031;-91
2022/09/07 09:18:17;;;;;;;;;;;20.10;99.90;;;;;;4985513;28;20049;-90
2022/09/07 09:20:50;;;;;;;24.95;21.95;;;20.20;99.90;;;;;;4997724;28;19913;-90
2022/09/07 09:23:19;;;;;;;25.50;22.88;;;20.20;99.90;;;;;;4979715;28;20022;-90
2022/09/07 09:25:56;;;;;;;24.52;21.75;;;20.20;99.90;;;;;;5000458;28;20023;-90
2022/09/07 09:28:22;;;;;;;24.13;21.70;;;20.30;99.90;;;;;;4983066;28;20476;-90
2022/09/07 09:30:49;;;;;;;23.98;21.52;;;20.30;99.90;;;;;;5000674;28;20027;-89
2022/09/07 09:33:27;;;;;;;22.70;20.30;;;20.40;99.90;;;;;;4984478;28;20057;-90
2022/09/07 09:36:00;;;;;;;21.80;19.60;;;20.50;99.90;;;;;;4998448;28;20018;-89
2022/09/07 09:38:42;;;;;;;23.52;21.02;;;20.60;99.90;;;;;;4980824;28;20113;-90
2022/09/07 09:41:10;;;;;;;21.15;18.83;;;20.70;99.90;;;;;;4998020;28;20054;-88
2022/09/07 09:43:51;;;;;;;20.73;18.52;;;20.70;99.90;;;;;;4981729;28;20033;-89
2022/09/07 09:46:30;;;;;;;20.83;18.52;;;20.80;99.90;;;;;;4989411;28;20050;-90
2022/09/07 09:48:58;;;;;;;20.33;17.95;;;20.90;99.90;;;;;;4982733;28;20034;-90
2022/09/07 09:51:26;;;;;;;20.67;18.40;;;20.90;99.90;;;;;;4992182;28;20052;-87
2022/09/07 09:53:58;;;;;;;21.02;18.70;;;21.00;99.90;;;;;;5008271;28;20022;-89
2022/09/07 09:56:44;;;;;;;20.55;18.40;;;21.10;99.90;;;;;;4996393;28;20026;-85
2022/09/07 09:59:16;;;;;;;19.77;17.67;;;21.10;99.90;;;;;;5003062;28;20052;-86
2022/09/07 10:01:44;;;;;;;21.38;18.88;;;21.20;99.90;;;;;;4995676;28;20088;-85
2022/09/07 10:04:24;;;;;;;19.70;17.73;;;21.20;99.90;;;;;;4981434;28;20023;-86
2022/09/07 10:07:16;;;;;;;19.92;17.83;;;21.30;99.90;;;;;;4996869;28;20041;-86
2022/09/07 10:09:49;;;;;;;19.00;17.02;;;21.30;99.90;;;;;;4974573;28;20547;-86
2022/09/07 10:12:34;;;;;;;20.92;18.67;;;21.40;99.90;;;;;;4978443;28;20026;-87
2022/09/07 10:15:03;;;;;;;20.27;17.90;;;21.50;99.90;;;;;;4995463;28;20558;-86
2022/09/07 10:17:35;;;;;;;18.90;16.92;;;21.50;99.90;;;;;;4995928;28;20046;-87
2022/09/07 10:20:20;;;;;;;18.95;16.45;;;21.50;99.90;;;;;;4995865;28;20034;-86
2022/09/07 10:22:52;;;;;;;17.88;16.13;;;21.60;99.90;;;;;;4981510;28;20049;-87
2022/09/07 10:25:40;;;;;;;16.77;15.15;;;21.60;99.90;;;;;;4999932;28;20037;-89
2022/09/07 10:28:08;;;;;;;17.65;15.80;;;21.70;99.90;;;;;;4988097;28;20042;-90
2022/09/07 10:30:49;;;;;;;19.85;16.75;;;21.70;99.90;;;;;;5003343;28;20061;-89
2022/09/07 10:33:41;;;;;;;15.68;14.05;;;21.80;99.90;;;;;;5003756;28;20030;-89
2022/09/07 10:36:19;;;;;;;16.63;14.85;;;21.90;99.90;;;;;;5002485;28;20037;-89
2022/09/07 10:38:55;;;;;;;17.25;15.50;;;21.90;99.90;;;;;;4998240;28;20471;-89
2022/09/07 10:41:36;;;;;;;16.58;14.25;;;22.00;99.90;;;;;;4997755;28;20026;-89
2022/09/07 10:44:05;;;;;;;14.70;13.20;;;22.00;99.90;;;;;;4981537;28;20071;-89
2022/09/07 10:47:05;;;;;;;13.63;12.23;;;22.10;99.90;;;;;;4997890;28;20498;-90
2022/09/07 10:49:42;;;;;;;12.77;11.48;;;22.20;99.90;;;;;;4996444;28;20026;-91
2022/09/07 10:52:17;;;;;;;14.57;12.63;;;22.30;99.90;;;;;;4997504;28;20026;-89
2022/09/07 10:54:48;;;;;;;12.90;11.57;;;22.30;99.90;;;;;;4997326;28;20025;-90
2022/09/07 10:57:51;;;;;;;12.60;11.30;;;22.40;99.90;;;;;;4997146;28;20026;-88
2022/09/07 11:00:19;;;;;;;12.10;10.52;;;22.40;99.90;;;;;;4982175;28;20034;-88
2022/09/07 11:03:00;;;;;;;11.25;8.63;;;22.50;99.90;;;;;;4981291;28;20034;-89
2022/09/07 11:05:31;;;;;;;10.50;8.65;;;22.50;99.90;;;;;;4983214;28;20049;-89
2022/09/07 11:08:17;;;;;;;9.35;8.23;;;22.50;99.90;;;;;;4999828;28;20034;-89
2022/09/07 11:10:50;;;;;;;9.52;7.72;;;22.60;99.90;;;;;;4983333;28;20038;-89
2022/09/07 11:13:21;;;;;;;8.52;7.53;;;22.70;99.90;;;;;;4988962;28;20026;-89
2022/09/07 11:16:05;;;;;;;10.05;8.23;;;22.70;99.90;;;;;;4986352;28;20021;-89
2022/09/07 11:18:54;;;;;;;8.80;7.18;;;22.70;99.90;;;;;;4997606;28;20037;-89
2022/09/07 11:21:26;;;;;;;9.30;7.10;;;22.70;99.90;;;;;;4969008;28;20050;-90
2022/09/07 11:24:25;;;;;;;8.45;6.95;;;22.80;99.90;;;;;;4980998;28;20026;-88
2022/09/07 11:26:55;;;;;;;8.73;6.70;;;22.90;99.90;;;;;;4965233;28;20112;-88
2022/09/07 11:29:35;;;;;;;8.23;6.53;;;22.90;99.90;;;;;;5000657;28;20030;-89
2022/09/07 11:32:14;;;;;;;10.80;6.97;;;23.00;99.90;;;;;;4985978;28;20018;-89
2022/09/07 11:34:51;;;;;;;10.43;6.47;;;23.10;99.90;;;;;;4987643;28;20026;-88
2022/09/07 11:37:38;;;;;;;7.90;6.05;;;23.10;99.90;;;;;;5001942;28;20090;-88
2022/09/07 11:40:48;;;;;;;6.88;5.82;;;23.20;99.90;;;;;;5007329;28;20030;-89
2022/09/07 11:43:40;;;;;;;8.23;5.78;;;23.30;99.90;;;;;;5003377;28;20039;-90
2022/09/07 11:46:36;;;;;;;8.30;6.10;;;23.40;99.90;;;;;;4988687;28;20033;-89
2022/09/07 11:49:11;;;;;;;13.07;6.25;;;23.50;99.90;;;;;;4995077;28;20038;-89
2022/09/07 11:52:04;;;;;;;9.05;5.88;;;23.50;99.90;;;;;;5025684;28;20028;-89
2022/09/07 11:54:44;;;;;;;8.02;6.45;;;23.60;99.90;;;;;;5009697;28;20424;-89
2022/09/07 11:57:13;;;;;;;8.30;6.63;;;23.60;99.90;;;;;;4982811;28;20030;-89
2022/09/07 12:00:01;;;;;;;7.63;5.75;;;23.70;99.90;;;;;;4998871;28;20054;-89
2022/09/07 12:03:04;;;;;;;8.65;5.18;;;23.80;99.90;;;;;;4977897;28;20027;-88
2022/09/07 12:05:48;;;;;;;6.78;5.30;;;23.90;99.90;;;;;;4993520;28;20026;-88
2022/09/07 12:08:36;;;;;;;6.20;4.90;;;23.90;99.90;;;;;;4992916;28;20034;-87
2022/09/07 12:11:14;;;;;;;7.68;5.15;;;24.10;99.90;;;;;;4989762;28;20093;-88
2022/09/07 12:13:54;;;;;;;6.90;4.97;;;24.10;99.90;;;;;;4990256;28;20019;-88
2022/09/07 12:16:35;;;;;;;7.68;4.25;;;24.20;99.90;;;;;;4990430;28;20023;-86
2022/09/07 12:19:17;;;;;;;9.13;4.85;;;24.20;99.90;;;;;;4990342;28;20055;-88
2022/09/07 12:21:52;;;;;;;8.57;4.32;;;24.30;99.90;;;;;;4974900;28;20110;-88
2022/09/07 12:24:39;;;;;;;7.05;4.45;;;24.40;99.90;;;;;;4982644;28;20495;-91
2022/09/07 12:27:21;;;;;;;7.68;4.18;;;24.40;99.90;;;;;;5000242;28;20030;-91
2022/09/07 12:29:51;;;;;;;7.32;4.38;;;24.50;99.90;;;;;;4991288;28;20041;-91
2022/09/07 12:32:47;;;;;;;5.93;3.55;;;24.50;99.90;;;;;;4976351;28;20079;-91
2022/09/07 12:35:28;;;;;;;6.47;3.42;;;24.60;99.90;;;;;;4991801;28;20049;-91
2022/09/07 12:37:55;;;;;;;4.80;2.80;;;24.60;99.00;;;;;;4991398;28;20416;-88
2022/09/07 12:40:27;;;;;;;4.85;2.63;;;24.70;99.80;;;;;;4993759;28;20518;-87
2022/09/07 12:43:13;;;;;;;5.60;2.42;;;24.80;99.90;;;;;;4990184;28;20031;-88
2022/09/07 12:45:39;;;;;;;4.97;2.30;;;24.80;99.80;;;;;;4965358;28;20038;-88
2022/09/07 12:48:17;;;;;;;6.68;2.70;;;24.90;99.50;;;;;;5005470;28;20031;-87
2022/09/07 12:51:08;;;;;;;5.78;2.38;;;25.00;98.40;;;;;;4984448;28;20031;-87
2022/09/07 12:53:44;;;;;;;;;;;25.10;98.20;;;;;;4978293;28;20026;-86
2022/09/07 12:56:13;;;;;;;6.97;2.58;;;25.10;98.10;;;;;;4992022;28;19917;-87
2022/09/07 12:59:06;;;;;;;7.70;2.65;;;25.10;97.60;;;;;;4978433;28;20085;-87
2022/09/07 13:01:58;;;;;;;7.22;2.40;;;25.10;96.10;;;;;;5006542;28;20062;-87
2022/09/07 13:05:35;;;;;;;6.88;2.30;;;25.20;96.10;;;;;;4983739;28;20098;-88
2022/09/07 13:08:27;;;;;;;12.95;2.50;;;25.20;95.90;;;;;;4896018;29;20095;-87
2022/09/07 13:10:53;;;;;;;7.88;3.03;;;25.30;95.50;;;;;;4938913;29;20043;-88
2022/09/07 13:13:27;;;;;;;5.07;2.08;;;25.30;95.80;;;;;;4965339;28;20045;-86
2022/09/07 13:16:04;;;;;;;8.05;2.17;;;25.40;95.70;;;;;;4976517;28;20361;-86
2022/09/07 13:18:30;;;;;;;7.70;2.55;;;25.50;95.80;;;;;;5003644;28;20041;-87